Time;durP1;ratioP1;P1;durP2;ratioP2;P2;SDS_P1;SDS_P2;PMS_P1;PMS_P2;Temp;Humidity;BMP_temperature;BMP_pressure;BME280_temperature;BME280_humidity;BME280_pressure;Samples;Min_cycle;Max_cycle;Signal;HPM_P1;HPM_P2
2023/11/06 00:00:23;;;;;;;0.30;0.20;;;13.90;99.90;;;;;;5109849;28;20531;-78
2023/11/06 00:02:49;;;;;;;0.30;0.20;;;13.90;99.90;;;;;;5109111;28;20264;-87
2023/11/06 00:05:15;;;;;;;0.30;0.20;;;13.90;99.90;;;;;;5125463;27;20444;-78
2023/11/06 00:07:41;;;;;;;3.77;3.67;;;13.90;99.90;;;;;;5124852;27;20420;-87
2023/11/06 00:10:09;;;;;;;0.30;0.20;;;13.90;99.90;;;;;;5124612;27;20412;-86
2023/11/06 00:12:36;;;;;;;0.83;0.83;;;13.80;99.90;;;;;;5126655;27;20499;-78
2023/11/06 00:15:02;;;;;;;1.13;1.13;;;13.80;99.90;;;;;;5108910;28;20425;-87
2023/11/06 00:17:27;;;;;;;0.30;0.20;;;13.80;99.90;;;;;;5109460;28;21003;-78
2023/11/06 00:19:53;;;;;;;0.30;0.20;;;13.70;99.90;;;;;;5108442;28;20435;-78
2023/11/06 00:22:18;;;;;;;0.30;0.20;;;13.80;99.90;;;;;;5124483;27;20180;-77
2023/11/06 00:24:44;;;;;;;0.30;0.20;;;13.70;99.90;;;;;;5123609;27;20370;-76
2023/11/06 00:27:10;;;;;;;0.30;0.20;;;13.70;99.90;;;;;;5124500;27;20183;-86
2023/11/06 00:29:36;;;;;;;0.30;0.20;;;13.60;99.90;;;;;;5108530;28;20231;-77
2023/11/06 00:32:03;;;;;;;0.30;0.20;;;13.60;99.90;;;;;;5124338;27;20390;-78
2023/11/06 00:34:29;;;;;;;0.30;0.20;;;13.50;99.90;;;;;;5108420;28;20193;-87
2023/11/06 00:36:55;;;;;;;0.30;0.20;;;13.50;99.90;;;;;;5108552;28;20524;-88
2023/11/06 00:39:20;;;;;;;0.30;0.20;;;13.50;99.90;;;;;;5107784;28;20444;-87
2023/11/06 00:41:46;;;;;;;0.30;0.20;;;13.50;99.90;;;;;;5125718;27;20202;-78
2023/11/06 00:44:12;;;;;;;9.53;9.17;;;13.50;99.90;;;;;;5109055;28;20200;-87
2023/11/06 00:46:37;;;;;;;0.30;0.20;;;13.50;99.90;;;;;;5108542;28;20522;-85
2023/11/06 00:49:03;;;;;;;0.40;0.30;;;13.50;99.90;;;;;;5122730;27;20558;-86
2023/11/06 00:51:29;;;;;;;0.83;0.83;;;13.50;99.90;;;;;;5124372;27;20628;-78
2023/11/06 00:53:55;;;;;;;0.30;0.20;;;13.50;99.90;;;;;;5108340;28;20280;-87
2023/11/06 00:56:20;;;;;;;0.30;0.20;;;13.50;99.90;;;;;;5108204;28;20340;-78
2023/11/06 00:58:46;;;;;;;0.30;0.20;;;13.40;99.90;;;;;;5123712;27;20670;-87
2023/11/06 01:01:13;;;;;;;0.30;0.20;;;13.40;99.90;;;;;;5107566;28;20200;-80
2023/11/06 01:03:39;;;;;;;0.30;0.20;;;13.30;99.90;;;;;;5108109;28;20206;-77
2023/11/06 01:06:05;;;;;;;0.40;0.40;;;13.30;99.90;;;;;;5123247;27;20710;-86
2023/11/06 01:08:30;;;;;;;0.30;0.20;;;13.30;99.90;;;;;;5107998;28;20508;-87
2023/11/06 01:10:56;;;;;;;0.30;0.20;;;13.30;99.90;;;;;;5123293;27;20232;-77
2023/11/06 01:13:22;;;;;;;0.30;0.20;;;13.30;99.90;;;;;;5107621;28;20227;-87
2023/11/06 01:15:48;;;;;;;0.30;0.20;;;13.30;99.90;;;;;;5107199;28;20445;-86
2023/11/06 01:18:14;;;;;;;0.30;0.20;;;13.30;99.90;;;;;;5124777;27;20460;-77
2023/11/06 01:20:40;;;;;;;0.40;0.40;;;13.30;99.90;;;;;;5122977;27;20427;-77
2023/11/06 01:23:06;;;;;;;0.50;0.47;;;13.30;99.90;;;;;;5107432;28;20200;-77
2023/11/06 01:25:32;;;;;;;0.30;0.20;;;13.30;99.90;;;;;;5123492;27;20457;-87
2023/11/06 01:27:58;;;;;;;0.30;0.20;;;13.30;99.90;;;;;;5123940;27;20519;-86
2023/11/06 01:30:24;;;;;;;2.10;2.00;;;13.30;99.90;;;;;;5123416;27;20172;-77
2023/11/06 01:32:50;;;;;;;0.60;0.57;;;13.30;99.90;;;;;;5122852;27;20857;-87
2023/11/06 01:35:19;;;;;;;0.30;0.20;;;13.30;99.90;;;;;;5107131;28;20503;-81
2023/11/06 01:37:45;;;;;;;0.30;0.20;;;13.30;99.90;;;;;;5122655;27;20198;-77
2023/11/06 01:40:11;;;;;;;0.30;0.20;;;13.40;99.90;;;;;;5122638;27;20442;-86
2023/11/06 01:42:40;;;;;;;0.30;0.20;;;13.40;99.90;;;;;;5107539;28;20469;-77
2023/11/06 01:45:07;;;;;;;0.30;0.20;;;13.50;99.90;;;;;;5107190;28;20904;-77
2023/11/06 01:47:34;;;;;;;0.30;0.20;;;13.50;99.90;;;;;;5107097;28;20401;-87
2023/11/06 01:50:03;;;;;;;0.30;0.20;;;13.50;99.90;;;;;;5121469;27;20451;-87
2023/11/06 01:52:30;;;;;;;0.30;0.20;;;13.40;99.90;;;;;;5107280;28;20469;-81
2023/11/06 01:54:56;;;;;;;0.30;0.20;;;13.40;99.90;;;;;;5122129;27;20514;-78
2023/11/06 01:57:23;;;;;;;0.30;0.20;;;13.40;99.90;;;;;;5108547;28;20396;-77
2023/11/06 01:59:48;;;;;;;0.30;0.20;;;13.40;99.90;;;;;;5127153;27;20675;-77
2023/11/06 02:02:17;;;;;;;0.30;0.20;;;13.40;99.90;;;;;;5123130;27;20443;-87
2023/11/06 02:04:47;;;;;;;0.30;0.20;;;13.50;99.90;;;;;;5106465;28;20188;-87
2023/11/06 02:07:13;;;;;;;0.30;0.20;;;13.50;99.90;;;;;;5106780;28;20385;-77
2023/11/06 02:09:42;;;;;;;0.30;0.20;;;13.60;99.90;;;;;;5121848;27;20444;-77
2023/11/06 02:12:09;;;;;;;0.30;0.30;;;13.60;99.90;;;;;;5122682;27;20721;-77
2023/11/06 02:14:53;;;;;;;0.30;0.20;;;13.60;99.90;;;;;;5106162;28;20508;-87
2023/11/06 02:17:20;;;;;;;0.30;0.20;;;13.60;99.90;;;;;;5106596;28;20476;-86
2023/11/06 02:19:46;;;;;;;0.30;0.20;;;13.60;99.90;;;;;;5121754;27;20883;-77
2023/11/06 02:22:18;;;;;;;0.30;0.20;;;13.70;99.90;;;;;;5106408;28;20955;-86
2023/11/06 02:24:44;;;;;;;0.30;0.20;;;13.70;99.90;;;;;;5121569;27;20436;-88
2023/11/06 02:27:10;;;;;;;0.30;0.20;;;13.70;99.90;;;;;;5106673;28;20401;-86
2023/11/06 02:29:35;;;;;;;0.30;0.20;;;13.70;99.90;;;;;;5105717;28;20546;-77
2023/11/06 02:32:03;;;;;;;0.30;0.20;;;13.70;99.90;;;;;;5106948;28;20415;-82
2023/11/06 02:34:29;;;;;;;0.30;0.20;;;13.70;99.90;;;;;;5121852;27;20207;-78
2023/11/06 02:36:54;;;;;;;8.60;1.57;;;13.60;99.90;;;;;;5106392;28;20459;-77
2023/11/06 02:39:20;;;;;;;0.30;0.20;;;13.60;99.90;;;;;;5105604;28;20195;-77
2023/11/06 02:41:47;;;;;;;0.60;0.60;;;13.60;99.90;;;;;;5106460;28;20579;-85
2023/11/06 02:44:13;;;;;;;0.30;0.20;;;13.60;99.90;;;;;;5121691;28;20439;-88
2023/11/06 02:46:39;;;;;;;0.30;0.20;;;13.60;99.90;;;;;;5123738;28;20511;-79
2023/11/06 02:49:05;;;;;;;0.40;0.40;;;13.60;99.90;;;;;;5121121;28;20456;-87
2023/11/06 02:51:31;;;;;;;0.30;0.20;;;13.70;99.90;;;;;;5105810;28;20246;-83
2023/11/06 02:53:56;;;;;;;0.30;0.20;;;13.70;99.90;;;;;;5121806;28;21083;-78
2023/11/06 02:56:23;;;;;;;0.30;0.20;;;13.70;99.90;;;;;;5105970;28;20744;-81
2023/11/06 02:58:49;;;;;;;0.30;0.20;;;13.70;99.90;;;;;;5121675;28;20697;-87
2023/11/06 03:01:15;;;;;;;0.30;0.20;;;13.70;99.90;;;;;;5121625;28;20412;-84
2023/11/06 03:03:41;;;;;;;0.30;0.20;;;13.70;99.90;;;;;;5105913;28;20192;-79
2023/11/06 03:06:09;;;;;;;0.30;0.20;;;13.70;99.90;;;;;;5105758;28;20407;-81
2023/11/06 03:08:34;;;;;;;2.00;1.90;;;13.70;99.90;;;;;;5121280;28;20207;-78
2023/11/06 03:11:00;;;;;;;17.60;8.40;;;13.60;99.90;;;;;;5121478;28;20414;-81
2023/11/06 03:13:26;;;;;;;0.30;0.20;;;13.60;99.90;;;;;;5105860;28;20230;-85
2023/11/06 03:15:52;;;;;;;0.30;0.20;;;13.60;99.90;;;;;;5105889;28;20789;-88
2023/11/06 03:18:17;;;;;;;0.30;0.20;;;13.60;99.90;;;;;;5121807;28;20290;-78
2023/11/06 03:20:43;;;;;;;0.30;0.20;;;13.50;99.90;;;;;;5121128;28;20175;-85
2023/11/06 03:23:09;;;;;;;0.50;0.50;;;13.50;99.90;;;;;;5106018;28;20239;-78
2023/11/06 03:25:34;;;;;;;0.30;0.20;;;13.40;99.90;;;;;;5106961;28;20171;-87
2023/11/06 03:28:00;;;;;;;0.30;0.20;;;13.30;99.90;;;;;;5105978;28;20699;-78
2023/11/06 03:30:25;;;;;;;0.30;0.20;;;13.30;99.90;;;;;;5121310;28;20175;-78
2023/11/06 03:32:51;;;;;;;0.30;0.20;;;13.30;99.90;;;;;;5105804;28;20320;-87
2023/11/06 03:35:17;;;;;;;0.30;0.20;;;13.20;99.90;;;;;;5105428;28;20196;-83
2023/11/06 03:37:44;;;;;;;0.30;0.20;;;13.20;99.90;;;;;;5121159;28;20195;-86
2023/11/06 03:40:10;;;;;;;0.30;0.20;;;13.20;99.90;;;;;;5121389;28;20624;-87
2023/11/06 03:42:36;;;;;;;0.30;0.20;;;13.20;99.90;;;;;;5105558;28;20453;-87
2023/11/06 03:45:01;;;;;;;0.30;0.20;;;13.20;99.90;;;;;;5121119;28;20426;-78
2023/11/06 03:47:27;;;;;;;0.30;0.20;;;13.10;99.90;;;;;;5105684;28;20994;-87
2023/11/06 03:49:54;;;;;;;0.30;0.20;;;13.00;99.90;;;;;;5120123;27;20191;-87
2023/11/06 03:52:19;;;;;;;0.30;0.20;;;12.90;99.90;;;;;;5124232;27;20180;-86
2023/11/06 03:54:45;;;;;;;0.30;0.30;;;12.80;99.90;;;;;;5124612;27;20451;-87
2023/11/06 03:57:11;;;;;;;0.30;0.20;;;12.70;99.90;;;;;;5111249;28;20214;-84
2023/11/06 03:59:36;;;;;;;0.30;0.20;;;12.70;99.90;;;;;;5109000;28;20346;-87
2023/11/06 04:02:02;;;;;;;0.30;0.20;;;12.70;99.90;;;;;;5109085;28;20297;-83
2023/11/06 04:04:28;;;;;;;0.30;0.20;;;12.60;99.90;;;;;;5124356;27;20574;-78
2023/11/06 04:06:53;;;;;;;0.30;0.20;;;12.60;99.90;;;;;;5124771;27;20425;-86
2023/11/06 04:09:19;;;;;;;0.30;0.20;;;12.60;99.90;;;;;;5124268;27;20192;-87
2023/11/06 04:11:45;;;;;;;0.30;0.20;;;12.50;99.90;;;;;;5109029;28;20175;-85
2023/11/06 04:14:11;;;;;;;0.30;0.20;;;12.60;99.90;;;;;;5108908;28;20310;-78
2023/11/06 04:16:36;;;;;;;0.30;0.20;;;12.50;99.90;;;;;;5110898;28;20203;-86
2023/11/06 04:19:02;;;;;;;0.30;0.20;;;12.50;99.90;;;;;;5109237;28;20199;-78
2023/11/06 04:21:28;;;;;;;0.30;0.20;;;12.50;99.90;;;;;;5124478;27;20327;-78
2023/11/06 04:23:54;;;;;;;0.50;0.50;;;12.40;99.90;;;;;;5105383;28;20208;-87
2023/11/06 04:26:19;;;;;;;0.40;0.30;;;12.40;99.90;;;;;;5088267;28;20255;-81
2023/11/06 04:28:45;;;;;;;0.30;0.20;;;12.30;99.90;;;;;;5086712;28;20821;-87
2023/11/06 04:31:11;;;;;;;0.30;0.20;;;12.30;99.90;;;;;;5088010;28;20168;-85
2023/11/06 04:33:37;;;;;;;0.30;0.20;;;12.30;99.90;;;;;;5088247;28;20200;-87
2023/11/06 04:36:04;;;;;;;1.43;1.33;;;12.30;99.90;;;;;;5088042;28;20210;-87
2023/11/06 04:38:29;;;;;;;0.30;0.20;;;12.30;99.90;;;;;;5088089;28;20453;-87
2023/11/06 04:40:56;;;;;;;0.30;0.20;;;12.30;99.90;;;;;;5085543;28;20616;-85
2023/11/06 04:43:22;;;;;;;0.30;0.20;;;12.40;99.90;;;;;;5086488;28;20196;-87
2023/11/06 04:45:48;;;;;;;0.30;0.20;;;12.40;99.90;;;;;;5087390;28;20514;-86
2023/11/06 04:48:14;;;;;;;0.30;0.30;;;12.40;99.90;;;;;;5086467;28;20200;-88
2023/11/06 04:50:39;;;;;;;0.30;0.20;;;12.40;99.90;;;;;;5085549;28;20513;-81
2023/11/06 04:53:05;;;;;;;0.30;0.20;;;12.40;99.90;;;;;;5100074;28;20446;-78
2023/11/06 04:55:31;;;;;;;0.30;0.20;;;12.40;99.90;;;;;;5105883;28;20699;-78
2023/11/06 04:57:57;;;;;;;0.30;0.30;;;12.50;99.90;;;;;;5106133;28;20179;-88
2023/11/06 05:00:22;;;;;;;0.30;0.20;;;12.50;99.90;;;;;;5107517;28;20996;-85
2023/11/06 05:02:49;;;;;;;0.73;0.73;;;12.40;99.90;;;;;;5106154;28;20168;-87
2023/11/06 05:05:14;;;;;;;0.85;0.82;;;12.50;99.90;;;;;;5107275;28;20404;-77
2023/11/06 05:07:41;;;;;;;0.30;0.20;;;12.50;99.90;;;;;;5106747;27;20684;-86
2023/11/06 05:10:07;;;;;;;0.70;0.70;;;12.50;99.90;;;;;;5106843;27;20260;-77
2023/11/06 05:12:33;;;;;;;0.30;0.20;;;12.50;99.90;;;;;;5104835;27;20424;-77
2023/11/06 05:15:01;;;;;;;0.30;0.20;;;12.60;99.90;;;;;;5107280;28;20435;-77
2023/11/06 05:17:27;;;;;;;0.30;0.20;;;12.60;99.90;;;;;;5107474;28;20386;-87
2023/11/06 05:19:52;;;;;;;0.30;0.20;;;12.70;99.90;;;;;;5106271;28;20276;-88
2023/11/06 05:22:20;;;;;;;0.30;0.20;;;12.70;99.90;;;;;;5106031;27;20180;-82
2023/11/06 05:24:46;;;;;;;0.30;0.20;;;12.70;99.90;;;;;;5102184;27;20221;-87
2023/11/06 05:27:12;;;;;;;2.50;2.40;;;12.80;99.90;;;;;;5104076;27;20188;-77
2023/11/06 05:29:38;;;;;;;0.30;0.20;;;12.80;99.90;;;;;;5102700;27;20430;-77
2023/11/06 05:32:05;;;;;;;0.57;0.40;;;12.80;99.90;;;;;;5103746;27;20656;-87
2023/11/06 05:34:31;;;;;;;0.30;0.20;;;12.80;99.90;;;;;;5119419;27;20434;-77
2023/11/06 05:36:57;;;;;;;0.30;0.30;;;12.80;99.90;;;;;;5112276;27;20768;-77
2023/11/06 05:39:23;;;;;;;0.30;0.20;;;12.80;99.90;;;;;;5123857;27;20292;-88
2023/11/06 05:41:49;;;;;;;0.30;0.20;;;12.80;99.90;;;;;;5106330;28;20519;-86
2023/11/06 05:44:15;;;;;;;0.30;0.20;;;12.80;99.90;;;;;;5104818;28;20598;-77
2023/11/06 05:46:43;;;;;;;0.30;0.20;;;12.80;99.90;;;;;;5104837;27;20660;-87
2023/11/06 05:49:09;;;;;;;0.30;0.20;;;12.80;99.90;;;;;;5103271;28;20208;-77
2023/11/06 05:51:35;;;;;;;0.30;0.20;;;12.70;99.90;;;;;;5101610;28;20523;-87
2023/11/06 05:54:01;;;;;;;0.57;0.53;;;12.70;99.90;;;;;;5102895;28;20918;-87
2023/11/06 05:56:26;;;;;;;0.30;0.20;;;12.70;99.90;;;;;;5101114;28;20460;-86
2023/11/06 05:58:52;;;;;;;0.30;0.20;;;12.70;99.90;;;;;;5108151;27;20478;-87
2023/11/06 06:01:18;;;;;;;0.30;0.20;;;12.70;99.90;;;;;;5112380;27;20185;-87
2023/11/06 06:03:43;;;;;;;0.30;0.20;;;12.70;99.90;;;;;;5094069;28;20660;-86
2023/11/06 06:06:16;;;;;;;0.30;0.20;;;12.70;99.90;;;;;;5097717;28;20257;-77
2023/11/06 06:08:42;;;;;;;0.30;0.20;;;12.70;99.90;;;;;;5104289;28;20713;-85
2023/11/06 06:11:08;;;;;;;0.67;0.67;;;12.70;99.90;;;;;;5098467;28;20766;-85
2023/11/06 06:13:34;;;;;;;0.30;0.20;;;12.60;99.90;;;;;;5094780;28;20471;-77
2023/11/06 06:16:01;;;;;;;0.30;0.20;;;12.60;99.90;;;;;;5098522;28;20204;-86
2023/11/06 06:18:27;;;;;;;0.30;0.20;;;12.50;99.90;;;;;;5097764;28;20769;-78
2023/11/06 06:20:52;;;;;;;1.17;1.17;;;12.50;99.90;;;;;;5101948;27;20191;-77
2023/11/06 06:23:18;;;;;;;0.30;0.20;;;12.50;99.90;;;;;;5095256;28;20472;-88
2023/11/06 06:25:44;;;;;;;0.30;0.20;;;12.40;99.90;;;;;;5100856;28;20188;-78
2023/11/06 06:28:10;;;;;;;0.40;0.40;;;12.40;99.90;;;;;;5103631;28;20588;-78
2023/11/06 06:30:36;;;;;;;0.30;0.20;;;12.40;99.90;;;;;;5092208;28;20690;-81
2023/11/06 06:33:02;;;;;;;0.30;0.20;;;12.40;99.90;;;;;;5092245;28;20742;-78
2023/11/06 06:35:28;;;;;;;0.30;0.20;;;12.40;99.90;;;;;;5115546;27;20215;-78
2023/11/06 06:37:54;;;;;;;2.00;1.90;;;12.50;99.90;;;;;;5101946;28;20797;-78
2023/11/06 06:40:20;;;;;;;0.30;0.30;;;12.50;99.90;;;;;;5090401;28;20183;-80
2023/11/06 06:42:47;;;;;;;0.30;0.30;;;12.50;99.90;;;;;;5098976;28;20176;-78
2023/11/06 06:45:13;;;;;;;0.30;0.20;;;12.60;99.90;;;;;;5101164;28;20434;-77
2023/11/06 06:47:39;;;;;;;0.30;0.20;;;12.60;99.90;;;;;;5098779;28;20543;-77
2023/11/06 06:50:04;;;;;;;0.30;0.20;;;12.70;99.90;;;;;;5125273;27;20996;-78
2023/11/06 06:52:30;;;;;;;1.83;1.80;;;12.80;99.90;;;;;;5096565;28;20644;-87
2023/11/06 06:54:56;;;;;;;0.30;0.20;;;12.90;99.90;;;;;;5098335;28;20428;-79
2023/11/06 06:57:21;;;;;;;0.30;0.20;;;13.00;99.90;;;;;;5119408;27;20211;-87
2023/11/06 06:59:47;;;;;;;0.30;0.20;;;13.00;99.90;;;;;;5099586;28;20214;-87
2023/11/06 07:02:13;;;;;;;0.30;0.20;;;13.00;99.90;;;;;;5096467;28;20194;-85
2023/11/06 07:04:40;;;;;;;1.33;1.23;;;13.10;99.90;;;;;;5115274;27;20223;-77
2023/11/06 07:07:06;;;;;;;0.70;0.43;;;13.10;99.90;;;;;;5122194;27;20436;-88
2023/11/06 07:09:33;;;;;;;0.30;0.20;;;13.10;99.90;;;;;;5092868;28;20436;-87
2023/11/06 07:12:02;;;;;;;0.70;0.67;;;13.10;99.90;;;;;;5094874;28;20817;-78
2023/11/06 07:14:28;;;;;;;0.30;0.20;;;13.10;99.90;;;;;;5093458;28;20578;-77
2023/11/06 07:16:57;;;;;;;0.30;0.20;;;13.10;99.90;;;;;;5090343;28;20529;-78
2023/11/06 07:19:24;;;;;;;0.30;0.20;;;13.10;99.90;;;;;;5093382;28;20444;-78
2023/11/06 07:21:50;;;;;;;1.50;1.27;;;13.10;99.90;;;;;;5090876;28;20637;-77
2023/11/06 07:24:15;;;;;;;0.30;0.20;;;13.20;99.90;;;;;;5123342;27;20449;-78
2023/11/06 07:26:41;;;;;;;0.30;0.30;;;13.20;99.90;;;;;;5099585;28;20192;-87
2023/11/06 07:29:07;;;;;;;0.30;0.30;;;13.30;99.90;;;;;;5101421;28;20283;-88
2023/11/06 07:31:32;;;;;;;0.30;0.20;;;13.30;99.90;;;;;;5093922;28;20725;-78
2023/11/06 07:33:58;;;;;;;0.67;0.67;;;13.40;99.90;;;;;;5094102;28;20203;-79
2023/11/06 07:36:24;;;;;;;0.30;0.20;;;13.50;99.90;;;;;;5098756;28;20587;-78
2023/11/06 07:38:49;;;;;;;0.30;0.20;;;13.60;99.90;;;;;;5098031;28;20620;-75
2023/11/06 07:41:16;;;;;;;0.40;0.40;;;13.60;99.90;;;;;;5100517;28;20366;-84
2023/11/06 07:43:43;;;;;;;0.30;0.20;;;13.60;99.90;;;;;;5094125;28;20212;-89
2023/11/06 07:46:16;;;;;;;0.40;0.37;;;13.70;99.90;;;;;;5101624;28;20416;-87
2023/11/06 07:48:42;;;;;;;0.30;0.30;;;13.80;99.90;;;;;;5088414;28;20812;-88
2023/11/06 07:51:07;;;;;;;0.30;0.20;;;13.90;99.90;;;;;;5102711;28;20916;-75
2023/11/06 07:53:33;;;;;;;0.30;0.20;;;14.00;99.90;;;;;;5112856;27;20691;-88
2023/11/06 07:56:02;;;;;;;0.30;0.20;;;14.10;99.90;;;;;;5086412;28;20580;-80
2023/11/06 07:58:28;;;;;;;1.37;0.97;;;14.20;99.90;;;;;;5093776;28;20306;-87
2023/11/06 08:00:54;;;;;;;0.30;0.20;;;14.40;99.90;;;;;;5097895;28;20500;-82
2023/11/06 08:03:19;;;;;;;0.30;0.20;;;14.40;99.90;;;;;;5093147;28;20209;-86
2023/11/06 08:05:45;;;;;;;0.97;0.97;;;14.40;99.90;;;;;;5095744;28;20558;-82
2023/11/06 08:08:11;;;;;;;8.80;8.33;;;14.50;99.90;;;;;;5097568;28;20198;-76
2023/11/06 08:10:37;;;;;;;2.63;2.53;;;14.50;99.90;;;;;;5102140;28;20190;-85
2023/11/06 08:13:03;;;;;;;0.30;0.20;;;14.60;99.90;;;;;;5105126;28;20494;-85
2023/11/06 08:15:28;;;;;;;1.47;1.37;;;14.80;99.90;;;;;;5102718;28;20219;-85
2023/11/06 08:17:54;;;;;;;2.53;2.30;;;15.00;99.90;;;;;;5103864;28;20188;-85
2023/11/06 08:20:20;;;;;;;29.90;27.00;;;15.40;99.90;;;;;;5115183;27;20434;-78
2023/11/06 08:22:46;;;;;;;0.83;0.83;;;16.30;99.90;;;;;;5105168;28;20665;-76
2023/11/06 08:25:13;;;;;;;0.30;0.20;;;17.20;99.90;;;;;;5105411;27;20474;-84
2023/11/06 08:27:39;;;;;;;0.30;0.20;;;17.70;99.90;;;;;;5102498;28;20248;-84
2023/11/06 08:30:09;;;;;;;1.47;1.37;;;18.00;99.90;;;;;;5100999;27;20449;-84
2023/11/06 08:32:35;;;;;;;0.30;0.20;;;18.00;99.90;;;;;;5102733;28;20184;-75
2023/11/06 08:35:04;;;;;;;0.60;0.60;;;17.90;99.90;;;;;;5103193;28;20522;-76
2023/11/06 08:37:31;;;;;;;0.30;0.20;;;17.70;99.90;;;;;;5125010;27;20995;-84
2023/11/06 08:39:56;;;;;;;0.30;0.20;;;17.50;99.90;;;;;;5101639;28;20641;-84
2023/11/06 08:42:22;;;;;;;0.60;0.60;;;17.30;99.90;;;;;;5103825;28;20762;-75
2023/11/06 08:44:48;;;;;;;0.30;0.20;;;17.10;99.90;;;;;;5102131;28;20554;-76
2023/11/06 08:47:19;;;;;;;2.93;2.03;;;17.00;99.90;;;;;;5104855;28;20196;-83
2023/11/06 08:49:45;;;;;;;0.40;0.40;;;16.80;99.90;;;;;;5101380;28;20457;-76
2023/11/06 08:52:11;;;;;;;0.30;0.20;;;16.80;99.90;;;;;;5088798;28;20420;-86
2023/11/06 08:54:45;;;;;;;0.30;0.20;;;16.70;99.90;;;;;;5099655;28;20808;-78
2023/11/06 08:57:14;;;;;;;0.30;0.20;;;16.60;99.90;;;;;;5102350;28;20463;-76
2023/11/06 08:59:41;;;;;;;0.30;0.20;;;16.40;99.90;;;;;;5097296;28;20502;-77
2023/11/06 09:02:07;;;;;;;0.30;0.20;;;16.30;99.90;;;;;;5103953;28;20504;-86
2023/11/06 09:04:33;;;;;;;1.70;0.70;;;16.20;99.90;;;;;;5100706;28;20583;-86
2023/11/06 09:07:03;;;;;;;0.40;0.40;;;16.10;99.90;;;;;;5102120;28;20623;-74
2023/11/06 09:09:29;;;;;;;0.30;0.20;;;16.00;99.90;;;;;;5124648;27;20483;-75
2023/11/06 09:11:55;;;;;;;0.30;0.30;;;15.80;99.90;;;;;;5095757;28;20512;-75
2023/11/06 09:14:20;;;;;;;0.30;0.20;;;15.80;99.90;;;;;;5092082;28;20223;-84
2023/11/06 09:16:46;;;;;;;0.30;0.20;;;15.70;99.90;;;;;;5113910;27;20499;-76
2023/11/06 09:19:12;;;;;;;11.57;11.13;;;15.70;99.90;;;;;;5101409;28;20455;-76
2023/11/06 09:21:38;;;;;;;0.30;0.20;;;15.60;99.90;;;;;;5097692;28;20330;-76
2023/11/06 09:24:04;;;;;;;0.30;0.20;;;15.50;99.90;;;;;;5099823;28;20229;-76
2023/11/06 09:26:30;;;;;;;0.70;0.70;;;15.50;99.90;;;;;;5098759;28;20252;-83
2023/11/06 09:28:57;;;;;;;0.30;0.30;;;15.50;99.90;;;;;;5098897;28;21022;-76
2023/11/06 09:31:23;;;;;;;0.30;0.20;;;15.50;99.90;;;;;;5096200;28;20416;-83
2023/11/06 09:33:50;;;;;;;1.20;1.20;;;15.50;99.90;;;;;;5101688;28;20891;-75
2023/11/06 09:36:16;;;;;;;0.70;0.70;;;15.50;99.90;;;;;;5105574;27;20223;-75
2023/11/06 09:38:42;;;;;;;0.50;0.50;;;15.50;99.90;;;;;;5103124;28;20451;-75
2023/11/06 09:41:08;;;;;;;0.93;0.77;;;15.50;99.90;;;;;;5110454;27;20278;-82
2023/11/06 09:43:33;;;;;;;0.30;0.20;;;15.50;99.90;;;;;;5085386;28;20212;-83
2023/11/06 09:45:59;;;;;;;2.73;2.63;;;15.50;99.90;;;;;;5108050;27;20181;-83
2023/11/06 09:48:31;;;;;;;0.40;0.40;;;15.50;99.90;;;;;;5094547;28;20207;-83
2023/11/06 09:50:57;;;;;;;0.30;0.30;;;15.60;99.90;;;;;;5098453;27;20598;-83
2023/11/06 09:53:24;;;;;;;0.30;0.27;;;15.70;99.90;;;;;;5083717;28;20486;-83
2023/11/06 09:55:51;;;;;;;0.30;0.20;;;15.70;99.90;;;;;;5094704;28;20522;-83
2023/11/06 09:58:16;;;;;;;0.30;0.20;;;15.80;99.90;;;;;;5101931;28;20508;-82
2023/11/06 10:00:48;;;;;;;0.30;0.20;;;15.80;99.90;;;;;;5095754;28;20967;-79
2023/11/06 10:03:14;;;;;;;0.30;0.20;;;15.90;99.90;;;;;;5101823;28;20211;-76
2023/11/06 10:05:41;;;;;;;0.30;0.20;;;15.90;99.90;;;;;;5105733;28;20489;-82
2023/11/06 10:08:07;;;;;;;0.30;0.30;;;16.00;99.90;;;;;;5102691;28;20472;-75
2023/11/06 10:10:34;;;;;;;0.30;0.20;;;16.10;99.90;;;;;;5108066;27;20431;-83
2023/11/06 10:13:03;;;;;;;0.30;0.30;;;16.20;99.90;;;;;;5104159;27;20606;-82
2023/11/06 10:15:30;;;;;;;2.37;2.23;;;16.30;99.90;;;;;;5092736;28;20421;-81
2023/11/06 10:18:11;;;;;;;0.30;0.20;;;16.40;99.90;;;;;;5099372;28;20444;-76
2023/11/06 10:20:48;;;;;;;0.30;0.30;;;16.40;99.90;;;;;;5098662;28;20940;-82
2023/11/06 10:23:32;;;;;;;0.40;0.30;;;16.50;99.90;;;;;;5097946;28;20456;-75
2023/11/06 10:26:09;;;;;;;0.60;0.60;;;16.50;99.90;;;;;;5098946;28;20423;-75
2023/11/06 10:28:35;;;;;;;0.40;0.40;;;16.50;99.90;;;;;;5099637;28;20791;-75
2023/11/06 10:31:01;;;;;;;0.30;0.20;;;16.50;99.90;;;;;;5098171;28;20428;-75
2023/11/06 10:33:32;;;;;;;0.30;0.20;;;16.60;99.90;;;;;;5103139;28;20467;-76
2023/11/06 10:35:58;;;;;;;0.30;0.30;;;16.60;99.90;;;;;;5103246;28;20209;-84
2023/11/06 10:38:33;;;;;;;0.30;0.20;;;16.70;99.90;;;;;;5102045;28;20439;-76
2023/11/06 10:41:13;;;;;;;0.30;0.20;;;16.80;99.90;;;;;;5098159;28;20573;-76
2023/11/06 10:43:41;;;;;;;0.30;0.20;;;17.00;99.90;;;;;;5100857;28;20453;-82
2023/11/06 10:46:10;;;;;;;0.30;0.20;;;17.10;99.90;;;;;;5099281;28;20416;-75
2023/11/06 10:48:44;;;;;;;0.30;0.30;;;17.20;99.90;;;;;;5091835;28;20456;-76
2023/11/06 10:51:13;;;;;;;0.30;0.20;;;17.30;99.90;;;;;;5099192;28;20501;-85
2023/11/06 10:53:40;;;;;;;1.23;1.13;;;17.40;99.90;;;;;;5089464;28;20457;-76
2023/11/06 10:56:08;;;;;;;0.30;0.20;;;17.50;99.90;;;;;;5094805;28;20470;-83
2023/11/06 10:58:36;;;;;;;0.30;0.20;;;17.60;99.90;;;;;;5100943;28;21033;-83
2023/11/06 11:01:07;;;;;;;0.30;0.20;;;17.70;99.90;;;;;;5105099;28;20445;-83
2023/11/06 11:03:33;;;;;;;0.30;0.20;;;17.70;99.90;;;;;;5108623;27;20595;-76
2023/11/06 11:05:59;;;;;;;0.30;0.20;;;17.80;99.90;;;;;;5101031;28;20489;-76
2023/11/06 11:08:26;;;;;;;0.30;0.20;;;17.90;99.90;;;;;;5099663;28;20511;-77
2023/11/06 11:10:56;;;;;;;0.53;0.53;;;18.00;99.90;;;;;;5101496;28;20802;-83
2023/11/06 11:13:23;;;;;;;0.30;0.20;;;18.00;99.90;;;;;;5103256;28;20504;-76
2023/11/06 11:15:48;;;;;;;0.30;0.20;;;18.00;99.90;;;;;;5107072;27;20571;-82
2023/11/06 11:18:14;;;;;;;0.30;0.20;;;18.10;99.90;;;;;;5099508;28;20556;-84
2023/11/06 11:20:57;;;;;;;0.30;0.20;;;18.10;99.90;;;;;;5108529;27;20663;-82
2023/11/06 11:23:46;;;;;;;0.70;0.70;;;18.20;99.90;;;;;;5101944;28;20782;-77
2023/11/06 11:26:13;;;;;;;0.30;0.20;;;18.20;99.90;;;;;;5098188;28;20419;-76
2023/11/06 11:28:59;;;;;;;0.30;0.20;;;18.20;99.90;;;;;;5110272;27;20468;-77
2023/11/06 11:31:43;;;;;;;0.43;0.40;;;18.20;99.90;;;;;;5101894;28;20430;-83
2023/11/06 11:34:26;;;;;;;0.30;0.20;;;18.30;99.90;;;;;;5115629;27;20813;-84
2023/11/06 11:36:55;;;;;;;0.30;0.20;;;18.30;99.90;;;;;;5099899;28;20693;-84
2023/11/06 11:39:22;;;;;;;0.30;0.20;;;18.40;99.90;;;;;;5099530;28;21020;-82
2023/11/06 11:42:00;;;;;;;0.30;0.20;;;18.40;99.90;;;;;;5099147;28;20437;-82
2023/11/06 11:44:26;;;;;;;0.30;0.20;;;18.50;99.90;;;;;;5126285;27;20776;-77
2023/11/06 11:46:57;;;;;;;0.30;0.30;;;18.50;99.90;;;;;;5096724;28;20430;-75
2023/11/06 11:49:37;;;;;;;1.43;0.83;;;18.60;99.90;;;;;;5100516;28;21123;-82
2023/11/06 11:52:03;;;;;;;0.30;0.20;;;18.60;99.90;;;;;;5105016;28;20427;-82
2023/11/06 11:54:34;;;;;;;0.30;0.20;;;18.60;99.90;;;;;;5099558;28;20486;-83
2023/11/06 11:57:03;;;;;;;0.30;0.20;;;18.70;99.90;;;;;;5097653;28;20478;-76
2023/11/06 11:59:30;;;;;;;0.30;0.20;;;18.80;99.90;;;;;;5090641;28;20459;-76
2023/11/06 12:01:58;;;;;;;0.30;0.20;;;18.80;99.90;;;;;;5096702;28;20760;-83
2023/11/06 12:04:25;;;;;;;0.30;0.20;;;18.90;99.90;;;;;;5091257;28;20713;-83
2023/11/06 12:07:02;;;;;;;0.30;0.20;;;19.00;99.90;;;;;;5096939;28;20753;-76
2023/11/06 12:09:42;;;;;;;0.40;0.33;;;19.00;99.90;;;;;;5094565;28;20450;-82
2023/11/06 12:12:08;;;;;;;0.30;0.20;;;19.10;99.90;;;;;;5094021;28;20438;-83
2023/11/06 12:14:37;;;;;;;0.30;0.20;;;19.10;99.90;;;;;;5122031;27;20553;-75
2023/11/06 12:17:04;;;;;;;0.30;0.20;;;19.10;99.90;;;;;;5102150;28;20525;-75
2023/11/06 12:19:39;;;;;;;0.30;0.20;;;19.10;99.90;;;;;;5099359;28;20507;-75
2023/11/06 12:22:05;;;;;;;0.30;0.20;;;19.00;99.90;;;;;;5093243;28;20430;-82
2023/11/06 12:24:31;;;;;;;0.30;0.30;;;19.00;99.90;;;;;;5095710;28;20496;-82
2023/11/06 12:26:58;;;;;;;0.43;0.40;;;18.80;99.90;;;;;;5111156;27;20526;-82
2023/11/06 12:29:28;;;;;;;0.30;0.20;;;18.80;99.90;;;;;;5095687;28;21043;-75
2023/11/06 12:31:57;;;;;;;0.30;0.30;;;18.70;99.90;;;;;;5098186;28;20990;-81
2023/11/06 12:34:23;;;;;;;0.30;0.20;;;18.70;99.90;;;;;;5095478;28;20466;-75
2023/11/06 12:37:00;;;;;;;0.30;0.20;;;18.70;99.90;;;;;;5094515;28;20566;-75
2023/11/06 12:39:29;;;;;;;0.30;0.20;;;18.60;99.90;;;;;;5099270;28;20818;-83
2023/11/06 12:41:58;;;;;;;0.30;0.20;;;18.60;99.90;;;;;;5096732;28;20447;-75
2023/11/06 12:44:39;;;;;;;0.30;0.20;;;18.60;99.90;;;;;;5097432;28;20554;-83